Time;durP1;ratioP1;P1;durP2;ratioP2;P2;SDS_P1;SDS_P2;PMS_P1;PMS_P2;Temp;Humidity;BMP_temperature;BMP_pressure;BME280_temperature;BME280_humidity;BME280_pressure;Samples;Min_cycle;Max_cycle;Signal;HPM_P1;HPM_P2
2021/06/05 00:00:18;;;;;;;2.00;1.60;;;18.70;99.90;;;;;;4993056;28;20415;-66
2021/06/05 00:02:44;;;;;;;3.90;1.77;;;18.70;99.90;;;;;;4991529;28;20172;-66
2021/06/05 00:05:10;;;;;;;3.30;2.30;;;18.60;99.90;;;;;;4993364;28;20486;-66
2021/06/05 00:07:36;;;;;;;3.87;2.17;;;18.70;99.90;;;;;;4992532;28;20188;-66
2021/06/05 00:10:04;;;;;;;1.90;1.80;;;18.70;99.90;;;;;;4993004;28;20445;-66
2021/06/05 00:12:30;;;;;;;1.90;1.80;;;18.70;99.90;;;;;;4992788;28;20182;-67
2021/06/05 00:14:55;;;;;;;2.20;2.10;;;18.70;99.90;;;;;;4992555;28;20455;-68
2021/06/05 00:17:21;;;;;;;2.50;2.30;;;18.70;99.90;;;;;;4992446;28;20207;-69
2021/06/05 00:19:47;;;;;;;3.80;2.27;;;18.70;99.90;;;;;;4992788;28;20523;-66
2021/06/05 00:22:13;;;;;;;2.10;2.00;;;18.70;99.90;;;;;;4992677;28;20179;-68
2021/06/05 00:24:40;;;;;;;2.60;2.40;;;18.60;99.90;;;;;;4992496;28;20196;-69
2021/06/05 00:27:07;;;;;;;2.63;2.07;;;18.50;99.90;;;;;;4992535;28;20171;-68
2021/06/05 00:29:32;;;;;;;3.47;2.63;;;18.40;99.90;;;;;;4992279;28;20518;-69
2021/06/05 00:31:58;;;;;;;3.00;2.80;;;18.30;99.90;;;;;;4992473;28;20506;-68
2021/06/05 00:34:24;;;;;;;2.37;2.17;;;18.20;99.90;;;;;;4992187;28;20495;-68
2021/06/05 00:36:50;;;;;;;3.97;3.10;;;18.10;99.90;;;;;;4990610;28;20900;-68
2021/06/05 00:39:15;;;;;;;2.50;2.30;;;18.00;99.90;;;;;;4991737;28;20258;-68
2021/06/05 00:41:41;;;;;;;3.33;2.60;;;17.90;99.90;;;;;;4992503;28;20168;-68
2021/06/05 00:44:12;;;;;;;2.70;2.50;;;17.80;99.90;;;;;;4992231;28;20597;-68
2021/06/05 00:46:38;;;;;;;2.77;2.50;;;17.70;99.90;;;;;;4992543;28;20433;-68
2021/06/05 00:49:06;;;;;;;3.20;2.90;;;17.50;99.90;;;;;;4991480;28;20506;-68
2021/06/05 00:51:44;;;;;;;2.57;2.47;;;17.40;99.90;;;;;;4992198;28;20426;-68
2021/06/05 00:54:12;;;;;;;4.57;3.20;;;17.30;99.90;;;;;;4992351;28;20466;-66
2021/06/05 00:56:40;;;;;;;2.20;2.10;;;17.20;99.90;;;;;;4991364;28;20798;-66
2021/06/05 00:59:06;;;;;;;2.90;2.70;;;17.20;99.90;;;;;;4991248;28;20427;-68
2021/06/05 01:01:32;;;;;;;4.50;2.63;;;17.20;99.90;;;;;;4992007;28;20429;-68
2021/06/05 01:03:58;;;;;;;2.53;2.43;;;17.20;99.90;;;;;;4992041;28;20195;-68
2021/06/05 01:06:33;;;;;;;2.57;2.37;;;17.20;99.90;;;;;;4991931;28;20708;-66
2021/06/05 01:09:02;;;;;;;2.47;2.27;;;17.20;99.90;;;;;;4991176;28;20414;-69
2021/06/05 01:11:40;;;;;;;3.20;2.43;;;17.30;99.90;;;;;;4991767;28;20782;-68
2021/06/05 01:14:47;;;;;;;2.37;2.27;;;17.20;99.90;;;;;;4991575;28;20585;-68
2021/06/05 01:17:21;;;;;;;2.70;2.50;;;17.20;99.90;;;;;;4991235;28;20423;-65
2021/06/05 01:19:53;;;;;;;2.97;2.73;;;17.20;99.90;;;;;;4991733;28;20442;-66
2021/06/05 01:22:48;;;;;;;5.80;3.17;;;17.20;99.90;;;;;;4991592;28;20423;-68
2021/06/05 01:25:23;;;;;;;3.47;2.60;;;17.20;99.90;;;;;;4991626;28;20798;-69
2021/06/05 01:27:57;;;;;;;3.33;2.60;;;17.20;99.90;;;;;;4991034;28;20426;-66
2021/06/05 01:30:27;;;;;;;8.03;2.73;;;17.20;99.90;;;;;;4991593;28;20419;-66
2021/06/05 01:32:56;;;;;;;5.00;3.43;;;17.20;99.90;;;;;;4991861;28;20785;-66
2021/06/05 01:35:23;;;;;;;3.83;2.93;;;17.20;99.90;;;;;;4991354;28;20462;-66
2021/06/05 01:37:49;;;;;;;4.67;2.97;;;17.30;99.90;;;;;;4989139;28;20415;-66
2021/06/05 01:40:15;;;;;;;5.00;3.13;;;17.40;99.90;;;;;;4991390;28;20840;-66
2021/06/05 01:42:43;;;;;;;3.97;2.70;;;17.40;99.90;;;;;;4991197;28;20423;-66
2021/06/05 01:45:19;;;;;;;3.10;2.60;;;17.40;99.90;;;;;;4991309;28;20534;-66
2021/06/05 01:47:45;;;;;;;3.00;2.80;;;17.40;99.90;;;;;;4990846;28;20422;-67
2021/06/05 01:50:13;;;;;;;2.33;2.13;;;17.40;99.90;;;;;;4991394;28;20835;-68
2021/06/05 01:52:39;;;;;;;2.93;2.53;;;17.40;99.90;;;;;;4991139;28;20183;-68
2021/06/05 01:55:13;;;;;;;5.33;2.13;;;17.40;99.90;;;;;;4989883;28;20486;-69
2021/06/05 01:57:43;;;;;;;2.90;2.03;;;17.40;99.90;;;;;;4990590;28;20418;-66
2021/06/05 02:00:20;;;;;;;2.50;1.90;;;17.40;99.90;;;;;;4991294;28;20453;-67
2021/06/05 02:02:46;;;;;;;2.20;2.00;;;17.30;99.90;;;;;;4991021;28;20434;-66
2021/06/05 02:05:12;;;;;;;4.13;2.07;;;17.30;99.90;;;;;;4991150;28;20942;-66
2021/06/05 02:07:37;;;;;;;3.37;2.30;;;17.30;99.90;;;;;;4990590;28;20183;-66
2021/06/05 02:10:09;;;;;;;2.57;2.23;;;17.30;99.90;;;;;;4995022;28;20242;-66
2021/06/05 02:12:34;;;;;;;2.17;1.97;;;17.30;99.90;;;;;;4995033;28;20171;-66
2021/06/05 02:15:15;;;;;;;2.27;2.00;;;17.30;99.90;;;;;;4994884;28;20836;-66
2021/06/05 02:17:41;;;;;;;2.27;1.93;;;17.30;99.90;;;;;;4994458;28;20679;-66
2021/06/05 02:20:15;;;;;;;2.80;2.43;;;17.30;99.90;;;;;;4994975;28;20422;-66
2021/06/05 02:22:44;;;;;;;2.47;2.27;;;17.30;99.90;;;;;;4993489;28;20463;-66
2021/06/05 02:25:13;;;;;;;2.37;1.90;;;17.30;99.90;;;;;;4994789;28;20438;-66
2021/06/05 02:27:41;;;;;;;3.80;2.03;;;17.30;99.90;;;;;;4994081;28;20506;-66
2021/06/05 02:30:14;;;;;;;2.27;1.60;;;17.30;99.90;;;;;;4994656;28;20431;-66
2021/06/05 02:32:40;;;;;;;2.53;2.40;;;17.30;99.90;;;;;;4994544;28;20430;-66
2021/06/05 02:35:10;;;;;;;2.30;1.83;;;17.30;99.90;;;;;;4994322;28;20520;-67
2021/06/05 02:37:36;;;;;;;2.00;1.90;;;17.30;99.90;;;;;;4992278;28;20176;-66
2021/06/05 02:40:07;;;;;;;2.60;2.40;;;17.30;99.90;;;;;;4994492;28;20414;-66
2021/06/05 02:42:33;;;;;;;2.00;1.90;;;17.30;99.90;;;;;;4994332;28;20195;-66
2021/06/05 02:45:00;;;;;;;2.60;2.40;;;17.30;99.90;;;;;;4994478;28;20995;-66
2021/06/05 02:47:27;;;;;;;2.73;2.53;;;17.30;99.90;;;;;;4993737;28;20178;-66
2021/06/05 02:49:53;;;;;;;2.67;1.80;;;17.30;99.90;;;;;;4994464;28;20422;-66
2021/06/05 02:52:33;;;;;;;2.00;1.90;;;17.30;99.90;;;;;;4994552;28;20505;-66
2021/06/05 02:55:04;;;;;;;2.83;2.07;;;17.40;99.90;;;;;;4994148;28;20206;-66
2021/06/05 02:57:30;;;;;;;3.07;2.07;;;17.40;99.90;;;;;;4993471;28;20421;-65
2021/06/05 02:59:57;;;;;;;2.30;2.10;;;17.40;99.90;;;;;;4994129;28;20441;-66
2021/06/05 03:02:23;;;;;;;3.53;2.50;;;17.40;99.90;;;;;;4994184;28;20423;-66
2021/06/05 03:04:48;;;;;;;2.23;1.90;;;17.50;99.90;;;;;;4994003;28;20444;-66
2021/06/05 03:07:14;;;;;;;2.20;2.10;;;17.50;99.90;;;;;;4993847;28;20184;-68
2021/06/05 03:09:40;;;;;;;3.63;2.07;;;17.50;99.90;;;;;;4994038;28;20175;-68
2021/06/05 03:12:08;;;;;;;2.63;2.30;;;17.60;99.90;;;;;;4994080;28;20418;-66
2021/06/05 03:14:34;;;;;;;2.73;2.53;;;17.60;99.90;;;;;;4993615;28;20203;-68
2021/06/05 03:17:00;;;;;;;1.93;1.83;;;17.60;99.90;;;;;;4994136;28;20427;-66
2021/06/05 03:19:26;;;;;;;1.97;1.87;;;17.60;99.90;;;;;;4992349;28;20180;-65
2021/06/05 03:21:52;;;;;;;3.00;2.20;;;17.60;99.90;;;;;;4993786;28;20526;-65
2021/06/05 03:24:17;;;;;;;2.97;2.77;;;17.60;99.90;;;;;;4993738;28;20192;-65
2021/06/05 03:26:43;;;;;;;2.57;2.37;;;17.60;99.90;;;;;;4993671;28;20544;-65
2021/06/05 03:29:08;;;;;;;2.40;2.20;;;17.60;99.90;;;;;;4993043;28;20176;-65
2021/06/05 03:31:34;;;;;;;2.07;1.87;;;17.60;99.90;;;;;;4993708;28;20179;-65
2021/06/05 03:34:00;;;;;;;3.60;2.43;;;17.50;99.90;;;;;;4992018;28;20227;-66
2021/06/05 03:36:26;;;;;;;2.80;2.17;;;17.50;99.90;;;;;;4993464;28;20915;-66
2021/06/05 03:38:52;;;;;;;2.30;2.10;;;17.50;99.90;;;;;;4992797;28;20903;-65
2021/06/05 03:41:18;;;;;;;2.70;2.40;;;17.60;99.90;;;;;;4993579;28;20510;-66
2021/06/05 03:43:43;;;;;;;2.93;2.73;;;17.60;99.90;;;;;;4991916;28;20569;-65
2021/06/05 03:46:10;;;;;;;3.20;2.33;;;17.70;99.90;;;;;;4993430;28;20411;-66
2021/06/05 03:48:36;;;;;;;2.03;1.93;;;17.70;99.90;;;;;;4992833;28;20182;-66
2021/06/05 03:51:03;;;;;;;2.87;2.40;;;17.70;99.90;;;;;;4993725;28;20461;-66
2021/06/05 03:53:29;;;;;;;2.67;2.47;;;17.80;99.90;;;;;;4993265;28;20443;-65
2021/06/05 03:55:55;;;;;;;3.37;3.17;;;17.80;99.90;;;;;;4993160;28;20874;-65
2021/06/05 03:58:28;;;;;;;2.90;2.20;;;17.90;99.90;;;;;;4992342;28;20222;-66
2021/06/05 04:00:54;;;;;;;2.20;2.10;;;17.90;99.90;;;;;;4993090;28;20415;-66
2021/06/05 04:03:19;;;;;;;2.57;2.37;;;18.00;99.90;;;;;;4993076;28;20862;-65
2021/06/05 04:05:45;;;;;;;2.93;2.30;;;18.10;99.90;;;;;;4993006;28;20171;-66
2021/06/05 04:08:12;;;;;;;2.97;2.37;;;18.20;99.90;;;;;;4992657;28;20175;-66
2021/06/05 04:10:37;;;;;;;7.83;2.50;;;18.20;99.90;;;;;;4992974;28;20222;-67
2021/06/05 04:13:04;;;;;;;2.40;2.07;;;18.20;99.90;;;;;;4992804;28;20434;-65
2021/06/05 04:15:31;;;;;;;2.70;2.20;;;18.20;99.90;;;;;;4992784;28;20199;-66
2021/06/05 04:17:59;;;;;;;3.23;2.90;;;18.30;99.90;;;;;;4992013;28;20419;-65
2021/06/05 04:20:25;;;;;;;5.77;2.40;;;18.40;99.90;;;;;;4992718;28;20419;-66
2021/06/05 04:22:52;;;;;;;2.53;2.10;;;18.50;99.90;;;;;;4992555;28;20946;-65
2021/06/05 04:25:17;;;;;;;2.20;2.00;;;18.60;99.90;;;;;;4992568;28;20178;-66
2021/06/05 04:27:43;;;;;;;4.73;3.40;;;18.60;99.90;;;;;;4991868;28;20410;-65
2021/06/05 04:30:11;;;;;;;3.97;3.63;;;18.60;99.90;;;;;;5007253;28;20171;-65
2021/06/05 04:32:37;;;;;;;3.30;2.30;;;18.60;99.90;;;;;;4991926;28;20184;-65
2021/06/05 04:35:04;;;;;;;3.73;2.57;;;18.60;99.90;;;;;;4992174;28;20557;-66
2021/06/05 04:37:30;;;;;;;2.77;2.50;;;18.60;99.90;;;;;;4990130;28;20234;-66
2021/06/05 04:39:55;;;;;;;2.93;2.73;;;18.60;99.90;;;;;;4992361;28;20410;-65
2021/06/05 04:42:21;;;;;;;3.70;2.50;;;18.50;99.90;;;;;;4992309;28;20203;-65
2021/06/05 04:44:47;;;;;;;6.50;2.97;;;18.40;99.90;;;;;;4991990;28;20195;-67
2021/06/05 04:47:12;;;;;;;3.70;2.73;;;18.20;99.90;;;;;;4991872;28;20176;-66
2021/06/05 04:49:38;;;;;;;3.43;2.43;;;18.20;99.90;;;;;;4991788;28;20415;-66
2021/06/05 04:52:05;;;;;;;5.40;3.70;;;18.30;99.90;;;;;;4990966;28;20180;-65
2021/06/05 04:54:31;;;;;;;3.33;3.13;;;18.30;99.90;;;;;;4991899;28;20207;-67
2021/06/05 04:56:57;;;;;;;2.87;2.67;;;18.40;99.90;;;;;;4991883;28;20415;-67
2021/06/05 04:59:23;;;;;;;6.90;3.13;;;18.40;99.90;;;;;;4991417;28;20461;-65
2021/06/05 05:01:49;;;;;;;3.43;2.47;;;18.50;99.90;;;;;;4992032;28;20255;-65
2021/06/05 05:04:14;;;;;;;3.43;2.60;;;18.50;99.90;;;;;;4991896;28;20282;-65
2021/06/05 05:06:40;;;;;;;2.83;2.50;;;18.50;99.90;;;;;;4990639;28;20854;-65
2021/06/05 05:09:07;;;;;;;3.63;2.77;;;18.50;99.90;;;;;;4991285;28;20258;-65
2021/06/05 05:11:33;;;;;;;2.57;2.37;;;18.60;99.90;;;;;;4991893;28;20202;-67
2021/06/05 05:13:59;;;;;;;4.03;2.90;;;18.60;99.90;;;;;;4991628;28;20497;-65
2021/06/05 05:16:24;;;;;;;2.30;2.17;;;18.50;99.90;;;;;;4991751;28;20527;-66
2021/06/05 05:18:53;;;;;;;3.87;3.53;;;18.40;99.90;;;;;;4990982;28;20171;-65
2021/06/05 05:21:20;;;;;;;2.90;2.50;;;18.40;99.90;;;;;;4991668;28;20757;-66
2021/06/05 05:23:47;;;;;;;3.80;2.20;;;18.30;99.90;;;;;;4991554;28;20435;-65
2021/06/05 05:26:12;;;;;;;3.33;2.20;;;18.30;99.90;;;;;;4991734;28;20581;-65
2021/06/05 05:28:39;;;;;;;1.70;1.60;;;18.40;99.90;;;;;;4991074;28;20793;-65
2021/06/05 05:31:08;;;;;;;2.47;2.30;;;18.30;99.90;;;;;;4991756;28;20680;-65
2021/06/05 05:33:38;;;;;;;3.27;2.53;;;18.40;99.90;;;;;;5029762;23;21063;-70
2021/06/05 05:36:10;;;;;;;5.20;2.40;;;18.40;99.90;;;;;;4989595;28;20832;-69
2021/06/05 05:38:37;;;;;;;2.43;2.23;;;18.50;99.90;;;;;;4990811;28;20906;-69
2021/06/05 05:41:07;;;;;;;2.73;2.30;;;18.50;99.90;;;;;;4990171;28;20479;-69
2021/06/05 05:43:33;;;;;;;3.27;2.10;;;18.60;99.90;;;;;;4991144;28;20903;-69
2021/06/05 05:45:59;;;;;;;2.53;2.33;;;18.50;99.90;;;;;;4991494;28;20561;-70
2021/06/05 05:48:24;;;;;;;3.10;2.10;;;18.50;99.90;;;;;;4990894;28;20229;-69
2021/06/05 05:50:50;;;;;;;5.10;2.80;;;18.60;99.90;;;;;;4991298;28;20178;-70
2021/06/05 05:53:16;;;;;;;3.00;2.40;;;18.60;99.90;;;;;;4991282;28;20171;-69
2021/06/05 05:55:42;;;;;;;2.60;2.40;;;18.80;99.90;;;;;;4991298;28;20207;-69
2021/06/05 05:58:12;;;;;;;2.83;2.57;;;19.00;99.90;;;;;;4990798;28;20415;-69
2021/06/05 06:00:40;;;;;;;2.40;2.20;;;18.90;99.90;;;;;;4991201;28;20451;-69
2021/06/05 06:03:07;;;;;;;2.40;2.03;;;18.90;99.90;;;;;;4991191;28;20797;-69
2021/06/05 06:05:34;;;;;;;1.97;1.87;;;19.00;99.90;;;;;;4991017;28;20472;-69
2021/06/05 06:07:59;;;;;;;4.57;2.00;;;19.10;99.90;;;;;;4990614;28;20793;-70
2021/06/05 06:10:26;;;;;;;3.27;2.97;;;19.20;99.90;;;;;;4991195;28;20418;-70
2021/06/05 06:12:51;;;;;;;6.90;2.53;;;19.30;99.90;;;;;;4991124;28;20182;-69
2021/06/05 06:15:22;;;;;;;2.20;2.10;;;19.40;99.90;;;;;;4990943;28;20454;-70
2021/06/05 06:17:48;;;;;;;2.33;2.13;;;19.50;99.90;;;;;;4990375;28;20540;-69
2021/06/05 06:20:33;;;;;;;2.33;2.13;;;19.60;99.90;;;;;;4991079;28;20418;-70
2021/06/05 06:22:59;;;;;;;4.10;2.20;;;19.60;99.90;;;;;;4991519;28;20472;-70
2021/06/05 06:25:29;;;;;;;3.90;1.87;;;19.70;99.90;;;;;;4991313;28;20434;-70
2021/06/05 06:27:55;;;;;;;1.97;1.87;;;19.80;99.90;;;;;;4990959;28;20488;-70
2021/06/05 06:30:27;;;;;;;2.47;2.00;;;20.00;99.90;;;;;;4991190;28;20419;-70
2021/06/05 06:32:54;;;;;;;2.30;2.10;;;19.90;99.90;;;;;;4991053;28;20423;-70
2021/06/05 06:35:21;;;;;;;2.50;2.30;;;19.90;99.90;;;;;;4990780;28;20889;-70
2021/06/05 06:37:47;;;;;;;2.23;2.03;;;20.10;99.90;;;;;;4990277;28;20509;-70
2021/06/05 06:40:13;;;;;;;2.93;1.90;;;20.40;99.90;;;;;;4990932;28;20925;-70
2021/06/05 06:42:39;;;;;;;2.60;2.40;;;20.60;99.90;;;;;;4990792;28;20419;-70
2021/06/05 06:45:05;;;;;;;3.97;2.33;;;20.70;99.90;;;;;;4989456;28;20470;-69
2021/06/05 06:47:31;;;;;;;2.40;2.30;;;20.90;99.90;;;;;;4990202;28;20238;-70
2021/06/05 06:49:56;;;;;;;4.57;2.27;;;21.50;99.90;;;;;;4989561;28;20912;-70
2021/06/05 06:52:25;;;;;;;4.00;3.60;;;21.90;99.90;;;;;;4990836;28;20206;-70
2021/06/05 06:54:52;;;;;;;3.40;3.10;;;22.30;99.90;;;;;;4992783;28;20298;-69
2021/06/05 06:57:17;;;;;;;2.80;1.77;;;22.60;99.90;;;;;;4993606;28;20422;-70
2021/06/05 06:59:43;;;;;;;1.67;1.57;;;22.50;99.90;;;;;;4994205;28;20419;-70
2021/06/05 07:02:10;;;;;;;2.00;1.80;;;22.50;99.90;;;;;;4994231;28;20176;-70
2021/06/05 07:04:35;;;;;;;2.47;2.10;;;22.30;99.90;;;;;;4993999;28;20226;-70
2021/06/05 07:07:01;;;;;;;2.40;2.20;;;22.30;99.90;;;;;;4994082;28;20426;-71
2021/06/05 07:09:26;;;;;;;1.83;1.73;;;22.20;99.90;;;;;;4993458;28;20242;-70
2021/06/05 07:11:52;;;;;;;2.67;2.10;;;22.20;99.90;;;;;;4994056;28;20178;-70
2021/06/05 07:14:17;;;;;;;1.73;1.63;;;22.40;99.90;;;;;;4993932;28;20207;-70
2021/06/05 07:16:43;;;;;;;2.83;2.10;;;22.70;99.90;;;;;;4993988;28;20183;-69
2021/06/05 07:19:09;;;;;;;1.53;1.43;;;23.10;99.90;;;;;;4993216;28;20208;-70
2021/06/05 07:21:35;;;;;;;1.73;1.63;;;23.30;99.90;;;;;;4993912;28;20196;-70
2021/06/05 07:24:00;;;;;;;2.13;1.80;;;23.80;99.90;;;;;;4993872;28;20434;-69
2021/06/05 07:26:28;;;;;;;1.90;1.80;;;24.20;99.90;;;;;;4993892;28;20233;-70
2021/06/05 07:28:57;;;;;;;1.67;1.57;;;24.30;99.90;;;;;;4992978;28;20206;-69
2021/06/05 07:31:30;;;;;;;2.33;2.00;;;24.00;99.90;;;;;;4993913;28;20446;-70
2021/06/05 07:33:56;;;;;;;2.70;2.10;;;23.60;99.90;;;;;;4993347;28;20470;-70
2021/06/05 07:36:29;;;;;;;5.03;1.93;;;23.60;99.90;;;;;;4993662;28;20845;-70
2021/06/05 07:38:55;;;;;;;3.47;1.90;;;23.30;99.90;;;;;;4991857;28;20806;-70
2021/06/05 07:41:21;;;;;;;2.93;2.43;;;23.20;99.90;;;;;;4993424;28;20423;-70
2021/06/05 07:43:46;;;;;;;2.43;2.23;;;23.20;99.90;;;;;;4993539;28;20450;-70
2021/06/05 07:46:12;;;;;;;2.37;1.97;;;23.00;99.90;;;;;;4993476;28;20908;-70
2021/06/05 07:48:38;;;;;;;3.17;2.57;;;22.90;99.90;;;;;;4992637;28;20175;-69
2021/06/05 07:51:05;;;;;;;3.10;1.80;;;22.90;99.90;;;;;;4993357;28;20172;-70
2021/06/05 07:53:31;;;;;;;2.17;1.97;;;23.00;99.90;;;;;;4993655;28;20246;-69
2021/06/05 07:55:58;;;;;;;2.63;2.03;;;22.90;99.90;;;;;;4993479;28;20454;-69
2021/06/05 07:58:23;;;;;;;3.03;2.37;;;23.00;99.90;;;;;;4992479;28;20419;-70
2021/06/05 08:00:49;;;;;;;2.03;1.93;;;22.90;99.90;;;;;;4993288;28;20501;-70
2021/06/05 08:03:14;;;;;;;1.90;1.60;;;22.90;99.90;;;;;;4992030;28;20186;-70
2021/06/05 08:05:41;;;;;;;2.03;1.93;;;22.40;99.90;;;;;;4993190;28;20175;-69
2021/06/05 08:08:08;;;;;;;2.00;1.90;;;22.20;99.90;;;;;;4992383;28;20233;-69
2021/06/05 08:10:35;;;;;;;2.67;2.47;;;21.80;99.90;;;;;;4992866;28;20414;-70
2021/06/05 08:13:01;;;;;;;2.73;2.53;;;21.50;99.90;;;;;;4992762;28;20430;-69
2021/06/05 08:15:33;;;;;;;2.60;2.40;;;21.20;99.90;;;;;;4992702;28;20458;-69
2021/06/05 08:17:58;;;;;;;2.67;2.30;;;21.00;99.90;;;;;;4992082;28;20175;-69
2021/06/05 08:20:28;;;;;;;2.30;2.10;;;20.80;99.90;;;;;;4992464;28;20429;-70
2021/06/05 08:22:56;;;;;;;2.50;2.30;;;20.70;99.90;;;;;;4992739;28;20672;-70
2021/06/05 08:25:22;;;;;;;2.27;2.07;;;20.70;99.90;;;;;;4992616;28;20453;-70
2021/06/05 08:27:47;;;;;;;2.40;2.30;;;20.70;99.90;;;;;;4992023;28;20427;-70
2021/06/05 08:30:38;;;;;;;3.47;3.00;;;20.90;99.90;;;;;;4992599;28;20258;-70
2021/06/05 08:33:05;;;;;;;5.60;2.60;;;21.00;99.90;;;;;;4992302;28;20656;-70
2021/06/05 08:35:30;;;;;;;2.93;1.87;;;21.30;99.90;;;;;;4992185;28;20887;-69
2021/06/05 08:37:56;;;;;;;2.10;1.97;;;21.40;99.90;;;;;;4991725;28;20521;-70
2021/06/05 08:40:35;;;;;;;2.40;2.10;;;21.50;99.90;;;;;;4992452;28;20347;-70
2021/06/05 08:43:01;;;;;;;4.60;2.70;;;21.50;99.90;;;;;;4992433;28;20423;-70
2021/06/05 08:45:30;;;;;;;2.43;1.90;;;21.70;99.90;;;;;;4992660;28;20446;-71
2021/06/05 08:47:56;;;;;;;2.73;2.53;;;21.90;99.90;;;;;;4991488;28;20171;-71
2021/06/05 08:50:29;;;;;;;3.17;2.53;;;22.10;99.90;;;;;;4992211;28;20433;-71
2021/06/05 08:53:12;;;;;;;3.90;2.13;;;22.30;99.90;;;;;;4992132;28;20425;-70
2021/06/05 08:55:53;;;;;;;2.23;2.00;;;22.50;99.90;;;;;;4992176;28;20462;-70
2021/06/05 08:58:48;;;;;;;2.80;2.60;;;22.30;99.90;;;;;;4991279;28;20423;-70
2021/06/05 09:01:29;;;;;;;3.90;3.00;;;22.30;99.90;;;;;;4992075;28;20986;-70
2021/06/05 09:03:58;;;;;;;4.40;2.47;;;22.40;99.90;;;;;;4991991;28;20434;-70
2021/06/05 09:06:53;;;;;;;2.67;2.47;;;22.30;99.90;;;;;;4991996;28;20423;-71
2021/06/05 09:09:28;;;;;;;5.70;4.53;;;22.30;99.90;;;;;;4987112;28;20455;-71
2021/06/05 09:11:54;;;;;;;2.90;2.70;;;22.30;99.90;;;;;;4991823;28;20425;-70
2021/06/05 09:14:19;;;;;;;2.77;2.57;;;22.40;99.90;;;;;;4991734;28;20955;-70
2021/06/05 09:16:47;;;;;;;2.00;1.63;;;22.50;99.90;;;;;;4991274;28;20171;-70
2021/06/05 09:19:19;;;;;;;2.93;2.03;;;22.40;99.90;;;;;;4990871;28;20361;-70
2021/06/05 09:21:46;;;;;;;3.67;2.43;;;22.30;99.90;;;;;;4991785;28;20994;-70
2021/06/05 09:24:26;;;;;;;3.27;2.93;;;22.40;99.90;;;;;;4991651;28;20435;-70
2021/06/05 09:27:20;;;;;;;2.23;2.13;;;22.50;99.90;;;;;;4991594;28;20426;-70
2021/06/05 09:30:09;;;;;;;2.47;2.27;;;22.50;99.90;;;;;;4991455;28;20506;-69
2021/06/05 09:32:53;;;;;;;2.80;2.27;;;22.70;99.90;;;;;;4991550;28;20419;-70
2021/06/05 09:35:25;;;;;;;2.10;1.90;;;23.20;99.90;;;;;;4991265;28;20481;-71
2021/06/05 09:38:11;;;;;;;2.20;2.00;;;23.50;99.90;;;;;;4990739;28;20509;-70
2021/06/05 09:40:36;;;;;;;4.73;1.53;;;23.90;99.90;;;;;;4991452;28;20497;-70
2021/06/05 09:43:08;;;;;;;2.03;1.83;;;24.40;99.90;;;;;;4991463;28;20503;-71
2021/06/05 09:45:40;;;;;;;1.70;1.60;;;24.70;99.90;;;;;;4991400;28;20187;-70
2021/06/05 09:48:31;;;;;;;2.20;1.93;;;24.50;99.90;;;;;;4990678;28;20794;-68
2021/06/05 09:50:59;;;;;;;1.80;1.70;;;24.40;99.90;;;;;;4991356;28;20419;-67
2021/06/05 09:53:36;;;;;;;1.93;1.83;;;24.20;99.90;;;;;;4991414;28;20533;-67
2021/06/05 09:56:26;;;;;;;2.80;2.20;;;23.90;99.90;;;;;;4991271;28;20542;-68
2021/06/05 09:59:16;;;;;;;2.37;2.20;;;23.70;99.90;;;;;;4990293;28;20418;-67
2021/06/05 10:01:56;;;;;;;2.07;1.97;;;23.50;99.90;;;;;;4991324;28;20426;-68
2021/06/05 10:04:22;;;;;;;2.50;2.30;;;23.40;99.90;;;;;;4991226;28;20998;-67
2021/06/05 10:06:52;;;;;;;2.90;2.70;;;23.20;99.90;;;;;;4991110;28;20419;-67
2021/06/05 10:09:23;;;;;;;2.50;2.07;;;23.20;99.90;;;;;;4990396;28;20427;-68
2021/06/05 10:11:53;;;;;;;2.43;2.23;;;23.20;99.90;;;;;;4991078;28;20411;-67
2021/06/05 10:14:34;;;;;;;4.60;2.47;;;23.20;99.90;;;;;;4990933;28;20477;-70
2021/06/05 10:17:05;;;;;;;2.67;2.47;;;23.20;99.90;;;;;;4991072;28;20419;-69
2021/06/05 10:19:40;;;;;;;3.00;2.70;;;23.20;99.90;;;;;;4990488;28;20987;-70
2021/06/05 10:22:07;;;;;;;2.50;2.30;;;23.00;99.90;;;;;;4991577;28;20442;-70
2021/06/05 10:24:50;;;;;;;3.37;3.17;;;22.70;99.90;;;;;;4991205;28;20470;-71
2021/06/05 10:27:25;;;;;;;3.10;2.90;;;22.60;99.90;;;;;;4990445;28;20506;-70
2021/06/05 10:30:12;;;;;;;2.80;2.60;;;22.50;99.90;;;;;;4992895;28;20414;-71
2021/06/05 10:32:41;;;;;;;2.90;2.23;;;22.30;99.90;;;;;;4990565;28;20462;-70
2021/06/05 10:35:38;;;;;;;2.63;2.37;;;22.20;99.90;;;;;;4994411;28;20466;-70
2021/06/05 10:38:12;;;;;;;2.37;2.27;;;22.30;99.90;;;;;;4993546;28;20439;-70
2021/06/05 10:40:38;;;;;;;2.63;2.43;;;22.50;99.90;;;;;;4994562;28;20402;-69
2021/06/05 10:43:07;;;;;;;3.07;2.77;;;22.30;99.90;;;;;;4994390;28;20415;-70
2021/06/05 10:45:38;;;;;;;3.50;2.53;;;22.10;99.90;;;;;;4994816;28;20418;-71
2021/06/05 10:48:25;;;;;;;4.30;3.87;;;22.00;99.90;;;;;;4993795;28;20429;-70
2021/06/05 10:51:02;;;;;;;3.70;2.90;;;22.10;99.90;;;;;;4994255;28;20418;-69
2021/06/05 10:53:41;;;;;;;3.57;3.03;;;22.30;99.90;;;;;;4994701;28;20437;-70
2021/06/05 10:56:34;;;;;;;2.70;2.50;;;22.70;99.90;;;;;;4994377;28;20465;-70
2021/06/05 10:59:00;;;;;;;4.63;4.10;;;22.80;99.90;;;;;;4993380;28;20418;-70
2021/06/05 11:01:28;;;;;;;4.23;2.53;;;22.80;99.90;;;;;;4994232;28;20446;-70
2021/06/05 11:04:03;;;;;;;2.60;2.40;;;23.00;99.90;;;;;;4994058;28;20442;-70
2021/06/05 11:06:47;;;;;;;2.77;2.57;;;22.90;99.90;;;;;;4994119;28;20406;-70
2021/06/05 11:09:26;;;;;;;2.50;2.30;;;22.90;99.90;;;;;;4993410;28;20502;-71
2021/06/05 11:11:53;;;;;;;3.77;2.60;;;22.80;99.90;;;;;;4992839;28;20472;-70
2021/06/05 11:14:22;;;;;;;2.43;2.23;;;22.70;99.90;;;;;;4994099;28;20454;-70
2021/06/05 11:17:00;;;;;;;2.30;2.10;;;22.60;99.90;;;;;;4992825;28;20502;-70
2021/06/05 11:20:14;;;;;;;3.00;2.70;;;22.40;99.90;;;;;;4993256;28;20415;-70
2021/06/05 11:22:52;;;;;;;4.60;1.90;;;22.20;99.90;;;;;;4993676;28;20718;-71
2021/06/05 11:25:17;;;;;;;3.20;2.63;;;22.40;99.90;;;;;;4993755;28;20453;-70
2021/06/05 11:27:49;;;;;;;2.60;2.40;;;22.60;99.90;;;;;;4993017;28;20419;-70
2021/06/05 11:30:20;;;;;;;3.13;2.50;;;22.90;99.90;;;;;;4993730;28;20226;-70
2021/06/05 11:32:50;;;;;;;2.60;2.40;;;23.30;99.90;;;;;;4993627;28;20423;-70
2021/06/05 11:35:41;;;;;;;2.67;2.47;;;23.90;99.90;;;;;;5045856;23;20994;-67
2021/06/05 11:38:18;;;;;;;3.00;2.20;;;25.20;99.90;;;;;;5011734;28;20766;-67
2021/06/05 11:40:49;;;;;;;2.43;2.20;;;25.90;99.90;;;;;;5012627;28;20406;-68
2021/06/05 11:43:29;;;;;;;3.23;2.30;;;26.50;99.90;;;;;;5013272;28;20458;-67
2021/06/05 11:46:11;;;;;;;3.00;2.63;;;27.30;99.90;;;;;;4993624;28;20426;-67
2021/06/05 11:49:01;;;;;;;3.40;2.03;;;27.40;99.90;;;;;;4992717;28;20856;-67
2021/06/05 11:51:35;;;;;;;2.50;2.00;;;26.40;99.90;;;;;;4993722;28;20482;-67
2021/06/05 11:54:09;;;;;;;2.50;2.30;;;25.80;99.90;;;;;;4993283;28;20438;-67
2021/06/05 11:56:46;;;;;;;2.37;2.17;;;25.30;99.90;;;;;;4993308;28;20426;-66
2021/06/05 11:59:22;;;;;;;2.00;1.90;;;25.20;99.90;;;;;;4992561;28;20418;-67
2021/06/05 12:01:48;;;;;;;2.33;2.13;;;25.00;99.90;;;;;;4993166;28;20414;-67
2021/06/05 12:04:18;;;;;;;5.00;2.53;;;25.10;99.90;;;;;;4993025;28;20434;-67
2021/06/05 12:06:46;;;;;;;2.90;2.63;;;24.90;99.90;;;;;;4993085;28;20415;-67
2021/06/05 12:09:16;;;;;;;5.50;3.30;;;24.80;99.90;;;;;;4992487;28;20414;-68
2021/06/05 12:12:00;;;;;;;4.17;3.87;;;25.10;99.90;;;;;;4993031;28;20470;-66
2021/06/05 12:17:36;;;;;;;2.70;2.50;;;25.00;99.90;;;;;;4992688;28;20451;-67
2021/06/05 12:20:13;;;;;;;2.70;2.43;;;25.20;99.90;;;;;;4992691;28;20419;-68
2021/06/05 12:22:41;;;;;;;1.83;1.73;;;25.60;99.90;;;;;;4992678;28;20488;-68
2021/06/05 12:25:21;;;;;;;2.10;2.00;;;25.90;99.90;;;;;;4992732;28;20461;-68
2021/06/05 12:27:47;;;;;;;4.33;2.37;;;25.70;99.90;;;;;;4992455;28;20497;-67
2021/06/05 12:30:28;;;;;;;3.40;2.53;;;25.60;99.90;;;;;;4992686;28;20570;-68
2021/06/05 12:33:01;;;;;;;3.27;3.00;;;25.90;99.90;;;;;;4992375;28;20185;-66
2021/06/05 12:35:35;;;;;;;2.07;1.80;;;26.40;99.90;;;;;;4992186;28;20481;-67
2021/06/05 12:38:01;;;;;;;1.50;1.40;;;26.30;99.90;;;;;;4990655;28;20517;-67
2021/06/05 12:40:38;;;;;;;7.87;2.37;;;26.50;99.90;;;;;;4992499;28;20419;-67
2021/06/05 12:43:07;;;;;;;2.00;1.83;;;27.00;99.90;;;;;;4991133;28;20962;-67
2021/06/05 12:45:33;;;;;;;1.80;1.43;;;27.00;99.90;;;;;;4992174;28;20457;-67
2021/06/05 12:48:01;;;;;;;2.17;1.57;;;26.20;99.90;;;;;;4991897;28;20448;-67
2021/06/05 12:50:31;;;;;;;1.70;1.60;;;26.40;99.90;;;;;;4992320;28;20903;-68
2021/06/05 12:52:59;;;;;;;1.70;1.60;;;26.70;99.90;;;;;;4991509;28;20427;-68
2021/06/05 12:55:33;;;;;;;2.60;1.60;;;26.50;99.90;;;;;;4992004;28;20807;-68
2021/06/05 12:58:35;;;;;;;1.50;1.20;;;26.40;99.90;;;;;;4991337;28;20422;-68
2021/06/05 13:01:03;;;;;;;1.43;1.33;;;26.30;99.90;;;;;;4991077;28;20430;-68
2021/06/05 13:03:40;;;;;;;1.63;1.53;;;26.50;99.90;;;;;;4991952;28;20990;-68
2021/06/05 13:06:23;;;;;;;2.37;1.90;;;26.30;99.90;;;;;;4991924;28;20422;-68